Aérodrome :







RETROUVEZ-NOUS SUR...

 
LOGIN :

S'inscrire | Disclaimer

   EN    FR    IT 

 









Légende :    VFR   VFR Marginal   IFR   IFR Intensif   IFR Très Intensif
Visi : 
Plafond : 
>= 8 km
>= 3000ft
5 à 8 km
1000 à 3000 ft
1500m à 5 km
500 à 1000 ft
800 à 1500m
200 à 500 ft
< 800m
< 200 ft
Symboles :   Orages  Brouillard  Fortes neiges  Fortes précipitations  Vent > 20 kt






- Altitude de l'aérodrome : 522 ft
- Code IATA : YBG


CYBG - CFB Bagotville

DERNIER METAR :
  • 121100Z 27003KT 3/4SM R11/2200FT -SN VV004 M10/M12 A2999 RMK SN8 VIS VRB 1/2-1 /S04/ SLP168

METARs EXPIRÉS :
  • 121013Z 29003KT 1SM R11/3000FT -SN OVC018 M10/M12 A3002 RMK SN6SC2 VIS VRB 3/4-1 1/2 SLP178
  • 121000Z 29003KT 1 1/2SM -SN OVC018 M10/M12 A3003 RMK SN5SC3 VIS VRB 1-2 SLP182
  • 120900Z 00000KT 1 1/2SM -SN OVC022 M10/M12 A3007 RMK SC8 VIS VRB 1-2 /S02/ SLP197

TAF TAF CYBG
Valide du 12 à 12h jusqu'au 13 à 12h UTC


121130Z 1212/1312 VRB03KT 3/4SM -SHSN VV004
TEMPO 1212/1214 2SM -SN BKN010 OVC025
FM121400 08005KT 5SM -SN BKN020 OVC030
TEMPO 1214/1217 2SM -SHSN OVC010
FM121700 08010KT 6SM -SN BKN020 OVC040
TEMPO 1217/1220 3SM -SHSN BKN015 OVC030
BECMG 1217/1219 30010KT
FM122000 30008KT P6SM -SN BKN030 OVC050
FM130000 VRB03KT P6SM BKN030
TEMPO 1300/1309 P6SM -SHSN
BECMG 1304/1306 30010KT RMK NXT FCST BY 121800Z



MET'MAP, la Météo Aéronautique d'un coup d'oeil ! - Copyright ORBIFLY Décembre 2007 - Disclaimer

ORBIFLY MET'MAP TEAM :

Programmation & Développement : Alexandra Zaïnal
Conception & Développement : Baudouin d'Aumeries
Co-Programmation & Développement : Marc-Olivier Méhu
Soutien technique & logistique : Manuel Goepfert

Contact : metmap@orbifly.com




SOURCES & CREDITS :

   NOAA